Navigator Of The Seas — C6FU4 — position and weather

sailwx.info

Track history (hours):
 
Tides and Currents Weather Stations Pressure Air Temp Water Temp Dewpoint Dewpoint Depression Visibility Wind Speed Wind Dir Waves Ship Positions

Navigator Of The Seas

Operator: Royal Caribbean Cruises Ltd

Last reported at 2018-Oct-20 02:03 UTC. Time now 2018-Oct-20 02:31 UTC.
Position N 49°53' W 003°13'.

Type: Passenger vessel. MMSI: 311478000.

Date/timePositionNaut miles runAvg speedWind from/ knotsBaromVisibWave heightAir tempDewpointWater temp
2018-Oct-20 02:03N 49°53' W 003°13'116.2
2018-Oct-20 01:58N 49°53' W 003°12'1016.4
2018-Oct-20 01:21N 49°57' W 002°57'1116.8
2018-Oct-20 00:41N 50°02' W 002°41'517.2
2018-Oct-20 00:22N 50°04' W 002°33'717.5
2018-Oct-19 23:58N 50°07' W 002°23'817.9
2018-Oct-19 23:30N 50°11' W 002°12'818.1
2018-Oct-19 23:03N 50°15' W 002°01'118.0
2018-Oct-19 23:00N 50°15' W 001°60'918.2
2018-Oct-19 22:31N 50°19' W 001°47'818.1
2018-Oct-19 22:03N 50°22' W 001°35'118.4
2018-Oct-19 22:01N 50°23' W 001°34'918.0
2018-Oct-19 21:31N 50°27' W 001°21'818.8
2018-Oct-19 21:03N 50°31' W 001°09'119.6
2018-Oct-19 21:00N 50°31' W 001°08'917.5
2018-Oct-19 20:30N 50°37' W 000°59'612.5
2018-Oct-19 20:03N 50°43' W 000°60'111.9
2018-Oct-19 20:00N 50°43' W 001°01'815.0
2018-Oct-19 19:30N 50°46' W 001°12'4 9.8
2018-Oct-19 19:04N 50°48' W 001°17'111.1
2018-Oct-19 19:01N 50°49' W 001°18'5 9.0
2018-Oct-19 18:31N 50°52' W 001°23'2 4.9
2018-Oct-19 18:03N 50°54' W 001°25'0 0.0
2018-Oct-19 18:00N 50°54' W 001°25'0 0.0
2018-Oct-19 17:30N 50°54' W 001°25'0 0.0
2018-Oct-19 17:03N 50°54' W 001°25'0 0.0
2018-Oct-19 17:00N 50°54' W 001°25'0 0.0
2018-Oct-19 16:30N 50°54' W 001°25'0 0.0
2018-Oct-19 16:03N 50°54' W 001°25'0 0.0
2018-Oct-19 16:00N 50°54' W 001°25'0 0.0
2018-Oct-19 15:30N 50°54' W 001°25'0 0.0
2018-Oct-19 15:03N 50°54' W 001°25'0 0.0
2018-Oct-19 15:00N 50°54' W 001°25'0 0.0
2018-Oct-19 14:30N 50°54' W 001°25'0 0.0
2018-Oct-19 13:30N 50°54' W 001°25'0 0.0
2018-Oct-19 13:03N 50°54' W 001°25'0 0.0
2018-Oct-19 13:00N 50°54' W 001°25'0 0.0
2018-Oct-19 12:30N 50°54' W 001°25'0 0.0
2018-Oct-19 12:03N 50°54' W 001°25'0 0.0
2018-Oct-19 12:00N 50°54' W 001°25'0 0.0
2018-Oct-19 11:30N 50°54' W 001°25'0 0.0
2018-Oct-19 11:03N 50°54' W 001°25'0 0.0
2018-Oct-19 11:00N 50°54' W 001°25'0 0.0
2018-Oct-19 10:30N 50°54' W 001°25'0 0.0
2018-Oct-19 10:03N 50°54' W 001°25'0 0.0
2018-Oct-19 10:00N 50°54' W 001°25'0 0.0
2018-Oct-19 09:30N 50°54' W 001°25'0 0.0
2018-Oct-19 09:03N 50°54' W 001°25'0 0.0
2018-Oct-19 09:00N 50°54' W 001°25'0 0.0
2018-Oct-19 08:30N 50°54' W 001°25'0 0.0
2018-Oct-19 08:03N 50°54' W 001°25'0 0.0
2018-Oct-19 08:00N 50°54' W 001°25'0 0.0
2018-Oct-19 07:30N 50°54' W 001°25'0 0.0
2018-Oct-19 07:03N 50°54' W 001°25'0 0.0
2018-Oct-19 07:00N 50°54' W 001°25'0 0.0
2018-Oct-19 06:30N 50°54' W 001°25'0 0.0
2018-Oct-19 06:03N 50°54' W 001°25'0 0.0
2018-Oct-19 06:00N 50°54' W 001°25'0 0.0
2018-Oct-19 05:30N 50°54' W 001°25'0 0.0
2018-Oct-19 05:03N 50°54' W 001°25'0 0.0
2018-Oct-19 05:00N 50°54' W 001°25'0 0.0
2018-Oct-19 04:30N 50°54' W 001°25'0 0.1
2018-Oct-19 04:04N 50°54' W 001°25'0 0.4
2018-Oct-19 04:00N 50°54' W 001°25'2 4.8
2018-Oct-19 03:30N 50°52' W 001°22'4 9.0
2018-Oct-19 03:03N 50°49' W 001°18'110.8
2018-Oct-19 03:00N 50°49' W 001°17'4 7.5
2018-Oct-19 02:30N 50°46' W 001°14'715.0
2018-Oct-19 02:03N 50°44' W 001°04'116.0
2018-Oct-19 02:00N 50°44' W 001°02'713.1
2018-Oct-19 01:30N 50°39' W 000°54'4 9.0
2018-Oct-19 01:03N 50°38' W 000°48'0 9.5
2018-Oct-19 01:00N 50°38' W 000°47'5 9.2
2018-Oct-19 00:30N 50°37' W 000°41'4 9.0
2018-Oct-19 00:03N 50°35' W 000°35'0 8.4
2018-Oct-19 00:00N 50°35' W 000°34'4 8.3
2018-Oct-18 23:30N 50°33' W 000°28'4 8.4
2018-Oct-18 23:01N 50°31' W 000°22'0 8.5
2018-Oct-18 23:00N 50°31' W 000°22'8 8.4
2018-Oct-18 22:00N 50°30' W 000°09'4 8.4
2018-Oct-18 21:30N 50°31' W 000°03'3 7.2
2018-Oct-18 21:03N 50°32' E 000°02'0 7.4
2018-Oct-18 21:00N 50°32' E 000°03'4 7.8
2018-Oct-18 20:29N 50°33' E 000°09'5 7.5
2018-Oct-18 19:52N 50°34' E 000°16'3 7.3
2018-Oct-18 19:30N 50°35' E 000°20'3 7.2
2018-Oct-18 19:03N 50°36' E 000°25'0 7.2
2018-Oct-18 19:00N 50°36' E 000°26'4 7.1
2018-Oct-18 18:30N 50°37' E 000°31'3 6.8
2018-Oct-18 18:03N 50°38' E 000°36'0 7.0
2018-Oct-18 18:00N 50°38' E 000°36'3 6.9
2018-Oct-18 17:30N 50°40' E 000°41'3 6.9
2018-Oct-18 17:03N 50°42' E 000°45'0 7.0
2018-Oct-18 17:00N 50°42' E 000°45'4 7.0
2018-Oct-18 16:30N 50°43' E 000°50'3 7.0
2018-Oct-18 16:03N 50°45' E 000°55'0 7.0
2018-Oct-18 16:00N 50°45' E 000°55'4 7.1
2018-Oct-18 15:30N 50°47' E 000°59'3 7.2
2018-Oct-18 15:03N 50°49' E 001°04'0 7.3
2018-Oct-18 15:00N 50°50' E 001°04'7 7.6
2018-Oct-18 14:03N 50°55' E 001°12'4 7.8
2018-Oct-18 13:30N 50°58' E 001°16'4 8.2
2018-Oct-18 13:03N 51°01' E 001°20'0 8.4
2018-Oct-18 13:00N 51°01' E 001°21'4 8.3
2018-Oct-18 12:30N 51°04' E 001°26'4 8.5
2018-Oct-18 12:03N 51°06' E 001°31'0 8.7
2018-Oct-18 12:00N 51°06' E 001°31'4 8.6
2018-Oct-18 11:30N 51°09' E 001°37'4 8.2
2018-Oct-18 11:03N 51°11' E 001°42'0 8.2
2018-Oct-18 11:00N 51°11' E 001°42'4 7.9
2018-Oct-18 10:30N 51°14' E 001°46'3 7.7
2018-Oct-18 10:03N 51°17' E 001°49'0 7.6
2018-Oct-18 10:00N 51°17' E 001°49'4 7.8
2018-Oct-18 09:30N 51°21' E 001°52'4 8.1
2018-Oct-18 09:03N 51°24' E 001°55'0 8.1
2018-Oct-18 09:00N 51°25' E 001°55'4 7.8
2018-Oct-18 08:30N 51°28' E 001°58'4 7.9
2018-Oct-18 08:03N 51°31' E 002°01'0 8.0
2018-Oct-18 08:00N 51°31' E 002°02'4 8.0
2018-Oct-18 07:30N 51°34' E 002°06'4 7.9
2018-Oct-18 07:03N 51°37' E 002°10'0 7.7
2018-Oct-18 07:00N 51°37' E 002°10'4 8.0
2018-Oct-18 06:30N 51°40' E 002°15'4 7.8
2018-Oct-18 06:02N 51°42' E 002°19'0 7.4
2018-Oct-18 06:00N 51°43' E 002°19'4 7.8
2018-Oct-18 05:30N 51°46' E 002°23'4 7.7
2018-Oct-18 05:03N 51°48' E 002°27'0 7.7
2018-Oct-18 04:59N 51°49' E 002°27'4 7.8
2018-Oct-18 04:29N 51°52' E 002°31'4 8.0
2018-Oct-18 04:03N 51°54' E 002°35'0 7.9
2018-Oct-18 03:59N 51°55' E 002°36'6 7.9
2018-Oct-18 03:12N 51°59' E 002°42'13 8.8
2018-Oct-18 01:45N 52°09' E 002°56'3 9.4
2018-Oct-18 01:27N 52°11' E 002°59'4 9.2
2018-Oct-18 01:02N 52°14' E 003°03'1 9.1
2018-Oct-18 00:54N 52°15' E 003°04'4 9.0
2018-Oct-18 00:30N 52°17' E 003°08'4 8.7
2018-Oct-18 00:02N 52°20' E 003°13'0 8.5
2018-Oct-18 00:00N 52°21' E 003°13'4 8.5
2018-Oct-17 23:30N 52°24' E 003°18'4 8.4
2018-Oct-17 23:02N 52°26' E 003°23'0 8.1
2018-Oct-17 23:00N 52°26' E 003°23'4 8.3
2018-Oct-17 22:30N 52°27' E 003°30'4 8.2
2018-Oct-17 22:03N 52°29' E 003°36'0 8.1
2018-Oct-17 22:00N 52°29' E 003°36'4 8.0
2018-Oct-17 21:30N 52°30' E 003°42'4 7.9
2018-Oct-17 21:03N 52°30' E 003°48'0 7.9
2018-Oct-17 21:00N 52°30' E 003°49'4 7.8
2018-Oct-17 20:30N 52°30' E 003°55'4 7.8
2018-Oct-17 20:03N 52°30' E 004°01'0 7.8
2018-Oct-17 20:00N 52°30' E 004°02'4 8.1
2018-Oct-17 19:30N 52°30' E 004°08'4 8.3
2018-Oct-17 19:03N 52°29' E 004°14'110.6
2018-Oct-17 19:00N 52°29' E 004°15'611.0
2018-Oct-17 18:30N 52°29' E 004°24'4 9.0
2018-Oct-17 18:03N 52°28' E 004°31'112.0
2018-Oct-17 18:00N 52°28' E 004°32'3 5.9
2018-Oct-17 17:30N 52°28' E 004°36'0 0.0
2018-Oct-17 17:03N 52°28' E 004°36'0 0.4
2018-Oct-17 17:00N 52°28' E 004°37'1 1.1
2018-Oct-17 16:30N 52°28' E 004°37'3 6.3
2018-Oct-17 16:03N 52°27' E 004°42'0 7.7
2018-Oct-17 16:00N 52°26' E 004°42'4 7.4
2018-Oct-17 15:30N 52°25' E 004°48'3 6.8
2018-Oct-17 15:03N 52°24' E 004°53'0 6.5
2018-Oct-17 15:00N 52°24' E 004°53'2 1.9
2018-Oct-17 14:01N 52°23' E 004°55'0 0.0
2018-Oct-17 13:28N 52°23' E 004°55'0 0.0
2018-Oct-17 13:01N 52°23' E 004°55'0 0.0
2018-Oct-17 12:58N 52°23' E 004°55'0 0.0
2018-Oct-17 12:28N 52°23' E 004°55'0 0.0
2018-Oct-17 12:01N 52°23' E 004°55'0 0.0
2018-Oct-17 11:58N 52°23' E 004°55'0 0.0
2018-Oct-17 11:28N 52°23' E 004°55'0 0.0
2018-Oct-17 11:01N 52°23' E 004°55'0 0.0
2018-Oct-17 10:58N 52°23' E 004°55'0 0.0
2018-Oct-17 10:28N 52°23' E 004°55'0 0.0
2018-Oct-17 10:01N 52°23' E 004°55'0 0.0
2018-Oct-17 09:58N 52°23' E 004°55'0 0.0
2018-Oct-17 09:28N 52°23' E 004°55'0 0.0
2018-Oct-17 09:01N 52°23' E 004°55'0 0.0
2018-Oct-17 08:58N 52°23' E 004°55'0 0.0
2018-Oct-17 08:28N 52°23' E 004°55'0 0.0
2018-Oct-17 08:01N 52°23' E 004°55'0 0.0
2018-Oct-17 07:58N 52°23' E 004°55'0 0.0
2018-Oct-17 07:28N 52°23' E 004°55'0 0.0
2018-Oct-17 07:01N 52°23' E 004°55'0 0.0
2018-Oct-17 06:58N 52°23' E 004°55'0 0.0
2018-Oct-17 06:28N 52°23' E 004°55'0 0.0
2018-Oct-17 06:01N 52°23' E 004°55'0 0.0
2018-Oct-17 05:58N 52°23' E 004°55'0 0.0
2018-Oct-17 05:28N 52°23' E 004°55'0 0.0
2018-Oct-17 04:58N 52°23' E 004°55'0 0.2
2018-Oct-17 04:30N 52°23' E 004°55'0 1.0
2018-Oct-17 04:03N 52°23' E 004°56'0 2.0
2018-Oct-17 04:00N 52°23' E 004°55'2 4.0
2018-Oct-17 03:30N 52°24' E 004°53'3 6.7
2018-Oct-17 03:03N 52°25' E 004°48'0 7.5
2018-Oct-17 03:00N 52°25' E 004°48'4 7.5
2018-Oct-17 02:30N 52°27' E 004°42'3 6.8
2018-Oct-17 02:03N 52°28' E 004°37'0 3.6
2018-Oct-17 02:00N 52°28' E 004°37'0 0.6
2018-Oct-17 01:30N 52°28' E 004°37'0 0.6
2018-Oct-17 01:03N 52°28' E 004°36'0 1.8
2018-Oct-17 01:00N 52°28' E 004°36'3 5.3
2018-Oct-17 00:30N 52°28' E 004°32'510.2
2018-Oct-17 00:03N 52°29' E 004°24'110.9
2018-Oct-17 00:00N 52°29' E 004°23'5 9.2
2018-Oct-16 23:30N 52°30' E 004°16'4 9.5
2018-Oct-16 23:03N 52°30' E 004°09'110.2
2018-Oct-16 23:00N 52°30' E 004°08'5 9.7
2018-Oct-16 22:30N 52°30' E 004°00'4 9.3
2018-Oct-16 22:03N 52°30' E 003°53'0 9.2
2018-Oct-16 22:00N 52°30' E 003°53'5 9.1
2018-Oct-16 21:30N 52°29' E 003°45'4 9.2
2018-Oct-16 21:03N 52°27' E 003°39'0 9.2
2018-Oct-16 21:00N 52°27' E 003°39'5 9.3
2018-Oct-16 20:30N 52°25' E 003°32'4 9.0
2018-Oct-16 20:03N 52°22' E 003°27'0 9.1
2018-Oct-16 20:00N 52°22' E 003°26'5 9.1
2018-Oct-16 19:30N 52°18' E 003°22'4 8.6
2018-Oct-16 19:03N 52°15' E 003°18'0 8.4
2018-Oct-16 19:00N 52°15' E 003°17'4 8.4
2018-Oct-16 18:30N 52°12' E 003°13'4 8.4
2018-Oct-16 18:03N 52°09' E 003°09'0 8.5
2018-Oct-16 18:00N 52°08' E 003°09'5 8.8
2018-Oct-16 17:28N 52°04' E 003°05'3 8.4
2018-Oct-16 17:03N 52°02' E 003°01'0 8.6
2018-Oct-16 17:00N 52°02' E 003°00'4 8.5
2018-Oct-16 16:30N 51°59' E 002°55'4 9.2
2018-Oct-16 16:03N 51°56' E 002°50'010.0
2018-Oct-16 16:00N 51°56' E 002°49'5 9.7
2018-Oct-16 15:30N 51°52' E 002°44'4 9.4
2018-Oct-16 15:03N 51°49' E 002°40'0 9.3
2018-Oct-16 15:00N 51°49' E 002°39'5 9.1
2018-Oct-16 14:30N 51°45' E 002°34'5 9.1
2018-Oct-16 14:00N 51°42' E 002°29'5 9.2
2018-Oct-16 13:30N 51°38' E 002°24'4 9.1
2018-Oct-16 13:03N 51°35' E 002°20'0 9.1
2018-Oct-16 13:00N 51°35' E 002°20'4 9.0
2018-Oct-16 12:30N 51°32' E 002°15'4 9.0
2018-Oct-16 12:03N 51°28' E 002°11'0 9.1
2018-Oct-16 12:00N 51°28' E 002°10'5 9.2
2018-Oct-16 11:30N 51°24' E 002°06'4 9.2
2018-Oct-16 11:03N 51°22' E 002°01'0 9.3
2018-Oct-16 11:00N 51°21' E 002°00'5 9.3
2018-Oct-16 10:30N 51°18' E 001°56'4 9.3
2018-Oct-16 10:03N 51°15' E 001°51'0 9.1
2018-Oct-16 10:00N 51°14' E 001°51'4 8.3
2018-Oct-16 09:30N 51°11' E 001°46'4 8.2
2018-Oct-16 09:03N 51°08' E 001°43'0 8.3
2018-Oct-16 09:00N 51°08' E 001°42'4 8.3
2018-Oct-16 08:30N 51°05' E 001°38'4 8.3
2018-Oct-16 08:03N 51°01' E 001°35'0 7.4
2018-Oct-16 08:00N 51°01' E 001°35'4 8.1
2018-Oct-16 07:30N 50°58' E 001°30'4 8.4
2018-Oct-16 07:03N 50°55' E 001°27'0 8.5
2018-Oct-16 07:00N 50°55' E 001°26'4 8.6
2018-Oct-16 06:30N 50°51' E 001°24'4 8.7
2018-Oct-16 06:03N 50°47' E 001°22'0 8.7
2018-Oct-16 06:00N 50°47' E 001°22'4 8.5
2018-Oct-16 05:30N 50°43' E 001°19'4 8.6
2018-Oct-16 05:03N 50°40' E 001°15'0 8.7
2018-Oct-16 05:00N 50°40' E 001°14'4 8.8
2018-Oct-16 04:30N 50°37' E 001°09'4 8.8
2018-Oct-16 04:03N 50°35' E 001°04'0 8.7
2018-Oct-16 04:00N 50°34' E 001°03'4 8.7
2018-Oct-16 03:30N 50°32' E 000°58'4 8.8
2018-Oct-16 03:03N 50°31' E 000°52'0 8.9
2018-Oct-16 03:00N 50°31' E 000°51'4 8.8
2018-Oct-16 02:30N 50°30' E 000°45'4 8.7
2018-Oct-16 02:03N 50°28' E 000°39'0 8.8
2018-Oct-16 02:00N 50°28' E 000°38'4 8.8
2018-Oct-16 01:30N 50°27' E 000°31'4 8.8
2018-Oct-16 01:03N 50°26' E 000°26'0 8.9
2018-Oct-16 01:00N 50°25' E 000°25'4 8.8
2018-Oct-16 00:30N 50°24' E 000°18'4 8.8
2018-Oct-16 00:03N 50°23' E 000°12'0 8.7
2018-Oct-16 00:00N 50°23' E 000°12'4 8.5
2018-Oct-15 23:31N 50°22' E 000°05'4 8.5
2018-Oct-15 23:04N 50°21' W 000°01'1 8.4
2018-Oct-15 22:59N 50°21' W 000°02'4 8.5
2018-Oct-15 22:30N 50°21' W 000°08'4 8.6
2018-Oct-15 22:03N 50°23' W 000°14'0 8.6
2018-Oct-15 22:00N 50°23' W 000°14'4 8.6
2018-Oct-15 21:31N 50°25' W 000°20'4 9.0
2018-Oct-15 21:03N 50°26' W 000°26'0 9.1
2018-Oct-15 21:00N 50°26' W 000°27'5 9.1
2018-Oct-15 20:30N 50°28' W 000°34'4 9.2
2018-Oct-15 20:03N 50°29' W 000°40'0 9.2
2018-Oct-15 20:00N 50°29' W 000°41'5 9.3
2018-Oct-15 19:30N 50°31' W 000°47'4 9.4
2018-Oct-15 19:03N 50°33' W 000°53'1 9.5
2018-Oct-15 19:00N 50°33' W 000°54'4 8.9
2018-Oct-15 18:31N 50°36' W 000°59'510.0
2018-Oct-15 18:03N 50°41' W 000°58'113.1
2018-Oct-15 18:00N 50°41' W 000°58'511.0
2018-Oct-15 17:31N 50°44' W 001°05'714.8
2018-Oct-15 17:03N 50°46' W 001°15'114.1
2018-Oct-15 17:00N 50°46' W 001°16'4 8.8
2018-Oct-15 16:30N 50°50' W 001°19'4 9.5
2018-Oct-15 16:03N 50°53' W 001°24'0 6.3
2018-Oct-15 16:00N 50°53' W 001°24'1 1.0
2018-Oct-15 15:29N 50°54' W 001°25'0 0.0
2018-Oct-15 15:02N 50°54' W 001°25'0 0.0
2018-Oct-15 14:59N 50°54' W 001°25'0 0.0
2018-Oct-15 14:29N 50°54' W 001°25'0 0.0
2018-Oct-15 13:59N 50°54' W 001°25'0 0.0
2018-Oct-15 13:29N 50°54' W 001°25'0 0.0
2018-Oct-15 13:02N 50°54' W 001°25'0 0.0
2018-Oct-15 12:59N 50°54' W 001°25'0 0.0
2018-Oct-15 12:29N 50°54' W 001°25'0 0.0
2018-Oct-15 12:02N 50°54' W 001°25'0 0.0
2018-Oct-15 11:59N 50°54' W 001°25'0 0.0
2018-Oct-15 11:29N 50°54' W 001°25'0 0.0
2018-Oct-15 11:02N 50°54' W 001°25'0 0.0
2018-Oct-15 10:59N 50°54' W 001°25'0 0.0
2018-Oct-15 10:29N 50°54' W 001°25'0 0.0
2018-Oct-15 10:02N 50°54' W 001°25'0 0.0
2018-Oct-15 09:59N 50°54' W 001°25'0 0.0
2018-Oct-15 09:29N 50°54' W 001°25'0 0.0
2018-Oct-15 09:02N 50°54' W 001°25'0 0.0
2018-Oct-15 08:59N 50°54' W 001°25'0 0.0
2018-Oct-15 08:29N 50°54' W 001°25'0 0.0
2018-Oct-15 08:02N 50°54' W 001°25'0 0.0
2018-Oct-15 07:59N 50°54' W 001°25'0 0.0
2018-Oct-15 07:29N 50°54' W 001°25'0 0.0
2018-Oct-15 07:02N 50°54' W 001°25'0 0.0
2018-Oct-15 06:59N 50°54' W 001°25'0 0.0
2018-Oct-15 06:29N 50°54' W 001°25'0 0.0
2018-Oct-15 06:02N 50°54' W 001°25'0 0.0
2018-Oct-15 05:59N 50°54' W 001°25'0 0.0
2018-Oct-15 05:29N 50°54' W 001°25'0 0.0
2018-Oct-15 05:02N 50°54' W 001°25'0 0.0
2018-Oct-15 04:59N 50°54' W 001°25'0 0.0
2018-Oct-15 04:29N 50°54' W 001°25'0 0.1
2018-Oct-15 04:03N 50°54' W 001°25'0 0.6
2018-Oct-15 04:00N 50°54' W 001°25'2 4.9
2018-Oct-15 03:30N 50°52' W 001°22'4 9.4
2018-Oct-15 03:03N 50°49' W 001°18'112.3
2018-Oct-15 03:00N 50°48' W 001°17'4 8.1
2018-Oct-15 02:30N 50°46' W 001°13'817.4
2018-Oct-15 02:03N 50°43' W 001°01'117.4
2018-Oct-15 02:00N 50°43' W 000°60'510.8
2018-Oct-15 01:30N 50°38' W 000°56'715.6
2018-Oct-15 01:03N 50°31' W 000°59'116.9
2018-Oct-15 01:00N 50°30' W 000°59'815.6
2018-Oct-15 00:30N 50°23' W 001°02'614.1
2018-Oct-15 00:03N 50°17' W 001°08'114.1
2018-Oct-15 00:01N 50°17' W 001°09'713.7
2018-Oct-14 23:30N 50°13' W 001°18'613.4
2018-Oct-14 23:03N 50°09' W 001°24'113.2
2018-Oct-14 23:00N 50°08' W 001°24'713.5
2018-Oct-14 22:30N 50°04' W 001°33'613.9
2018-Oct-14 22:04N 50°02' W 001°42'112.3
2018-Oct-14 22:00N 50°01' W 001°43'612.4
2018-Oct-14 21:30N 49°60' W 001°52'613.8
2018-Oct-14 21:03N 49°59' W 002°01'113.3
2018-Oct-14 21:00N 49°58' W 002°02'713.2
2018-Oct-14 20:30N 49°57' W 002°12'1112.4
2018-Oct-14 19:37N 49°53' W 002°28'212.1
2018-Oct-14 19:25N 49°52' W 002°32'512.0
2018-Oct-14 19:01N 49°51' W 002°39'512.0
2018-Oct-14 18:37N 49°50' W 002°46'211.8
2018-Oct-14 18:25N 49°49' W 002°50'711.6
2018-Oct-14 17:50N 49°48' W 003°00'811.3
2018-Oct-14 17:09N 49°46' W 003°12'411.2
2018-Oct-14 16:49N 49°45' W 003°17'511.3
2018-Oct-14 16:25N 49°44' W 003°24'411.2
2018-Oct-14 16:01N 49°43' W 003°31'211.3
2018-Oct-14 15:50N 49°42' W 003°34'12 6.6
2018-Oct-14 14:00N 49°54' W 003°28'1213.3
2018-Oct-14 13:05N 49°57' W 003°10'613.2
2018-Oct-14 12:36N 49°59' W 003°00'312.7
2018-Oct-14 12:24N 49°60' W 002°56'512.4
2018-Oct-14 12:00N 50°01' W 002°49'711.8
2018-Oct-14 11:24N 50°02' W 002°38'511.3
2018-Oct-14 10:56N 50°03' W 002°30'510.9
2018-Oct-14 10:30N 50°05' W 002°23'510.8
2018-Oct-14 10:03N 50°06' W 002°16'110.9
2018-Oct-14 10:00N 50°06' W 002°15'510.5
2018-Oct-14 09:30N 50°08' W 002°07'510.7
2018-Oct-14 09:03N 50°09' W 002°00'111.2
2018-Oct-14 09:00N 50°09' W 001°59'510.9
2018-Oct-14 08:31N 50°11' W 001°51'511.0
2018-Oct-14 08:03N 50°12' W 001°44'611.2
2018-Oct-14 07:30N 50°14' W 001°34'511.2
2018-Oct-14 07:03N 50°15' W 001°27'111.7
2018-Oct-14 07:00N 50°15' W 001°26'611.7
2018-Oct-14 06:30N 50°17' W 001°17'511.9
2018-Oct-14 06:03N 50°18' W 001°09'112.1
2018-Oct-14 06:00N 50°18' W 001°08'612.5
2018-Oct-14 05:30N 50°20' W 000°58'612.6
2018-Oct-14 05:03N 50°21' W 000°50'112.2
2018-Oct-14 05:00N 50°22' W 000°49'612.5
2018-Oct-14 04:30N 50°24' W 000°40'612.6
2018-Oct-14 04:03N 50°25' W 000°31'212.4
2018-Oct-14 03:55N 50°26' W 000°29'512.4
2018-Oct-14 03:30N 50°27' W 000°21'813.1
2018-Oct-14 02:55N 50°29' W 000°09'713.7
2018-Oct-14 02:26N 50°31' E 000°01'513.3
2018-Oct-14 02:03N 50°32' E 000°08'312.8
2018-Oct-14 01:51N 50°33' E 000°12'412.5
2018-Oct-14 01:31N 50°34' E 000°19'612.4
2018-Oct-14 01:04N 50°35' E 000°27'112.3
2018-Oct-14 01:01N 50°36' E 000°28'612.0
2018-Oct-14 00:31N 50°38' E 000°37'511.1
2018-Oct-14 00:04N 50°41' E 000°44'111.2
2018-Oct-14 00:01N 50°41' E 000°44'611.2
2018-Oct-13 23:30N 50°44' E 000°52'511.2
2018-Oct-13 23:04N 50°47' E 000°58'111.5
2018-Oct-13 23:00N 50°47' E 000°59'611.5
2018-Oct-13 22:31N 50°51' E 001°06'612.3
2018-Oct-13 22:03N 50°55' E 001°12'112.4
2018-Oct-13 22:01N 50°56' E 001°12'612.9
2018-Oct-13 21:31N 51°00' E 001°20'613.2
2018-Oct-13 21:04N 51°04' E 001°27'113.4
2018-Oct-13 21:01N 51°05' E 001°27'713.4
2018-Oct-13 20:31N 51°09' E 001°36'613.9
2018-Oct-13 20:04N 51°13' E 001°43'113.3
2018-Oct-13 20:01N 51°13' E 001°44'612.9
2018-Oct-13 19:31N 51°19' E 001°49'512.0
2018-Oct-13 19:04N 51°23' E 001°54'111.2
2018-Oct-13 19:01N 51°24' E 001°54'611.4
2018-Oct-13 18:31N 51°25' E 002°03'511.9
2018-Oct-13 18:04N 51°22' E 002°11'112.6
2018-Oct-13 18:01N 51°22' E 002°12'612.0
2018-Oct-13 17:31N 51°21' E 002°21'612.2
2018-Oct-13 17:04N 51°23' E 002°30'111.6
2018-Oct-13 17:01N 51°23' E 002°30'611.7
2018-Oct-13 16:30N 51°23' E 002°40'511.2
2018-Oct-13 16:04N 51°25' E 002°47'113.3
2018-Oct-13 16:01N 51°25' E 002°48'815.4
2018-Oct-13 15:31N 51°25' E 003°00'714.8
2018-Oct-13 15:03N 51°23' E 003°10'114.1
2018-Oct-13 15:01N 51°22' E 003°11'2 1.9
2018-Oct-13 14:03N 51°20' E 003°12'0 0.0
2018-Oct-13 14:00N 51°20' E 003°12'0 0.0
2018-Oct-13 13:30N 51°20' E 003°12'0 0.0
2018-Oct-13 13:03N 51°20' E 003°12'0 0.0
2018-Oct-13 13:00N 51°20' E 003°12'0 0.0
2018-Oct-13 12:30N 51°20' E 003°12'0 0.0
2018-Oct-13 12:03N 51°20' E 003°12'0 0.0
2018-Oct-13 12:00N 51°20' E 003°12'0 0.0
2018-Oct-13 11:30N 51°20' E 003°12'0 0.0
2018-Oct-13 11:03N 51°20' E 003°12'0 0.0
2018-Oct-13 11:00N 51°20' E 003°12'0 0.0
2018-Oct-13 10:30N 51°20' E 003°12'0 0.0
2018-Oct-13 10:03N 51°20' E 003°12'0 0.0
2018-Oct-13 10:00N 51°20' E 003°12'0 0.0
2018-Oct-13 09:30N 51°20' E 003°12'0 0.0
2018-Oct-13 09:03N 51°20' E 003°12'0 0.0
2018-Oct-13 09:00N 51°20' E 003°12'0 0.0
2018-Oct-13 08:30N 51°20' E 003°12'0 0.0
2018-Oct-13 08:03N 51°20' E 003°12'0 0.0
2018-Oct-13 08:00N 51°20' E 003°12'0 0.0
2018-Oct-13 07:30N 51°20' E 003°12'0 0.0
2018-Oct-13 07:03N 51°20' E 003°12'0 0.0
2018-Oct-13 07:00N 51°20' E 003°12'0 0.0
2018-Oct-13 06:30N 51°20' E 003°12'0 0.0
2018-Oct-13 06:03N 51°20' E 003°12'0 0.0
2018-Oct-13 06:00N 51°20' E 003°12'0 0.0
2018-Oct-13 05:30N 51°20' E 003°12'0 0.0
2018-Oct-13 05:03N 51°20' E 003°12'0 0.0
2018-Oct-13 05:00N 51°20' E 003°12'0 0.3
2018-Oct-13 04:30N 51°21' E 003°12'4 8.5
2018-Oct-13 04:03N 51°24' E 003°09'113.6
2018-Oct-13 04:00N 51°24' E 003°08'815.5
2018-Oct-13 03:31N 51°22' E 002°56'716.3
2018-Oct-13 03:03N 51°22' E 002°44'110.2
2018-Oct-13 03:00N 51°22' E 002°43'917.5
2018-Oct-13 02:31N 51°22' E 002°29'919.6
2018-Oct-13 02:03N 51°18' E 002°16'119.7
2018-Oct-13 02:01N 51°18' E 002°15'1019.6
2018-Oct-13 01:31N 51°13' E 002°01'920.1
2018-Oct-13 01:03N 51°07' E 001°50'120.2
2018-Oct-13 01:00N 51°07' E 001°48'1020.6
2018-Oct-13 00:30N 50°60' E 001°37'920.4
2018-Oct-13 00:04N 50°52' E 001°28'120.0
2018-Oct-13 00:01N 50°51' E 001°28'1019.3
2018-Oct-12 23:31N 50°42' E 001°23'818.7
2018-Oct-12 23:03N 50°36' E 001°14'118.8
2018-Oct-12 23:01N 50°35' E 001°13'918.7
2018-Oct-12 22:31N 50°29' E 001°01'919.4
2018-Oct-12 22:03N 50°27' E 000°48'119.7
2018-Oct-12 22:01N 50°27' E 000°47'1019.7
2018-Oct-12 21:30N 50°24' E 000°32'919.4
2018-Oct-12 21:03N 50°22' E 000°19'119.4
2018-Oct-12 21:00N 50°21' E 000°17'919.1
2018-Oct-12 20:30N 50°19' E 000°03'818.6
2018-Oct-12 20:04N 50°19' W 000°10'118.1
2018-Oct-12 20:01N 50°19' W 000°12'917.6
2018-Oct-12 19:31N 50°23' W 000°24'817.3
2018-Oct-12 19:03N 50°26' W 000°35'117.3
2018-Oct-12 19:00N 50°26' W 000°36'817.0
2018-Oct-12 18:31N 50°31' W 000°47'816.7
2018-Oct-12 18:03N 50°36' W 000°57'114.4
2018-Oct-12 18:01N 50°36' W 000°57'612.6
2018-Oct-12 17:30N 50°43' W 000°59'613.8
2018-Oct-12 17:03N 50°45' W 001°07'118.1
2018-Oct-12 17:00N 50°46' W 001°09'612.3
2018-Oct-12 16:30N 50°48' W 001°18'510.3
2018-Oct-12 16:03N 50°52' W 001°22'112.4
2018-Oct-12 16:00N 50°52' W 001°23'2 4.2
2018-Oct-12 15:30N 50°54' W 001°25'0 0.0
2018-Oct-12 15:03N 50°54' W 001°25'0 0.0
2018-Oct-12 15:00N 50°54' W 001°25'0 0.0
2018-Oct-12 14:03N 50°54' W 001°25'0 0.0
2018-Oct-12 14:00N 50°54' W 001°25'0 0.0
2018-Oct-12 13:30N 50°54' W 001°25'0 0.0
2018-Oct-12 13:03N 50°54' W 001°25'0 0.0
2018-Oct-12 13:00N 50°54' W 001°25'0 0.0
2018-Oct-12 12:30N 50°54' W 001°25'0 0.0
2018-Oct-12 12:03N 50°54' W 001°25'0 0.0
2018-Oct-12 11:57N 50°54' W 001°25'0 0.0
2018-Oct-12 11:30N 50°54' W 001°25'0 0.0
2018-Oct-12 11:03N 50°54' W 001°25'0 0.0
2018-Oct-12 11:00N 50°54' W 001°25'0 0.0
2018-Oct-12 10:30N 50°54' W 001°25'0 0.0
2018-Oct-12 10:03N 50°54' W 001°25'0 0.0
2018-Oct-12 10:00N 50°54' W 001°25'0 0.0
2018-Oct-12 09:30N 50°54' W 001°25'0 0.0
2018-Oct-12 09:03N 50°54' W 001°25'0 0.0
2018-Oct-12 09:00N 50°54' W 001°25'0 0.0
2018-Oct-12 08:30N 50°54' W 001°25'0 0.0
2018-Oct-12 08:00N 50°54' W 001°25'0 0.0
2018-Oct-12 07:27N 50°54' W 001°25'0 0.0
2018-Oct-12 07:03N 50°54' W 001°25'0 0.0
2018-Oct-12 07:00N 50°54' W 001°25'0 0.0
2018-Oct-12 06:27N 50°54' W 001°25'0 0.0
2018-Oct-12 06:03N 50°54' W 001°25'0 0.0
2018-Oct-12 06:00N 50°54' W 001°25'0 0.0
2018-Oct-12 05:30N 50°54' W 001°25'0 0.0
2018-Oct-12 05:03N 50°54' W 001°25'0 0.0
2018-Oct-12 05:00N 50°54' W 001°25'0 0.0
2018-Oct-12 04:30N 50°54' W 001°25'0 0.0
2018-Oct-12 04:03N 50°54' W 001°25'0 0.2
2018-Oct-12 04:00N 50°54' W 001°25'1 2.7
2018-Oct-12 03:30N 50°53' W 001°24'510.1
2018-Oct-12 03:03N 50°50' W 001°19'111.7
2018-Oct-12 03:00N 50°49' W 001°18'4 7.7
2018-Oct-12 02:30N 50°46' W 001°14'715.7
2018-Oct-12 02:03N 50°44' W 001°04'118.8
2018-Oct-12 02:00N 50°44' W 001°02'510.3
2018-Oct-12 01:30N 50°39' W 000°59'612.6
2018-Oct-12 01:03N 50°34' W 001°02'114.3
2018-Oct-12 01:00N 50°33' W 001°03'714.9
2018-Oct-12 00:30N 50°29' W 001°13'715.2
2018-Oct-12 00:03N 50°26' W 001°22'115.1
2018-Oct-12 00:00N 50°26' W 001°23'815.1
2018-Oct-11 23:30N 50°22' W 001°33'715.9
2018-Oct-11 23:03N 50°17' W 001°41'116.7
2018-Oct-11 23:01N 50°16' W 001°42'917.2
2018-Oct-11 22:30N 50°10' W 001°51'817.8
2018-Oct-11 22:03N 50°04' W 002°00'117.7
2018-Oct-11 22:00N 50°04' W 002°01'917.9
2018-Oct-11 21:30N 49°59' W 002°13'2517.8
2018-Oct-11 20:05N 49°51' W 002°51'516.9
2018-Oct-11 19:47N 49°50' W 002°58'516.9
2018-Oct-11 19:30N 49°47' W 003°05'1419.2
2018-Oct-11 18:47N 49°42' W 003°24'1019.3
2018-Oct-11 18:16N 49°37' W 003°38'1719.2
2018-Oct-11 17:24N 49°27' W 003°58'5018.8
2018-Oct-11 14:44N 48°59' W 005°03'618.1
2018-Oct-11 14:25N 48°56' W 005°10'718.0
2018-Oct-11 14:00N 48°52' W 005°19'917.4
2018-Oct-11 13:30N 48°48' W 005°30'4316.8
2018-Oct-11 10:58N 48°10' W 006°00'  
Track history (hours):
 
Tides and Currents Weather Stations Pressure Air Temp Water Temp Dewpoint Dewpoint Depression Visibility Wind Speed Wind Dir Waves Ship Positions

Navigator Of The Seas

Operator: Royal Caribbean Cruises Ltd

Last reported at 2018-Oct-20 02:03 UTC. Time now 2018-Oct-20 02:31 UTC.
Position N 49°53' W 003°13'.

Type: Passenger vessel. MMSI: 311478000.

Date/timePositionNaut miles runAvg speedWind from/ knotsBaromVisibWave heightAir tempDewpointWater temp
2018-Oct-20 02:03N 49°53' W 003°13'116.2
2018-Oct-20 01:58N 49°53' W 003°12'1016.4
2018-Oct-20 01:21N 49°57' W 002°57'1116.8
2018-Oct-20 00:41N 50°02' W 002°41'517.2
2018-Oct-20 00:22N 50°04' W 002°33'717.5
2018-Oct-19 23:58N 50°07' W 002°23'817.9
2018-Oct-19 23:30N 50°11' W 002°12'818.1
2018-Oct-19 23:03N 50°15' W 002°01'118.0
2018-Oct-19 23:00N 50°15' W 001°60'918.2
2018-Oct-19 22:31N 50°19' W 001°47'818.1
2018-Oct-19 22:03N 50°22' W 001°35'118.4
2018-Oct-19 22:01N 50°23' W 001°34'918.0
2018-Oct-19 21:31N 50°27' W 001°21'818.8
2018-Oct-19 21:03N 50°31' W 001°09'119.6
2018-Oct-19 21:00N 50°31' W 001°08'917.5
2018-Oct-19 20:30N 50°37' W 000°59'612.5
2018-Oct-19 20:03N 50°43' W 000°60'111.9
2018-Oct-19 20:00N 50°43' W 001°01'815.0
2018-Oct-19 19:30N 50°46' W 001°12'4 9.8
2018-Oct-19 19:04N 50°48' W 001°17'111.1
2018-Oct-19 19:01N 50°49' W 001°18'5 9.0
2018-Oct-19 18:31N 50°52' W 001°23'2 4.9
2018-Oct-19 18:03N 50°54' W 001°25'0 0.0
2018-Oct-19 18:00N 50°54' W 001°25'0 0.0
2018-Oct-19 17:30N 50°54' W 001°25'0 0.0
2018-Oct-19 17:03N 50°54' W 001°25'0 0.0
2018-Oct-19 17:00N 50°54' W 001°25'0 0.0
2018-Oct-19 16:30N 50°54' W 001°25'0 0.0
2018-Oct-19 16:03N 50°54' W 001°25'0 0.0
2018-Oct-19 16:00N 50°54' W 001°25'0 0.0
2018-Oct-19 15:30N 50°54' W 001°25'0 0.0
2018-Oct-19 15:03N 50°54' W 001°25'0 0.0
2018-Oct-19 15:00N 50°54' W 001°25'0 0.0
2018-Oct-19 14:30N 50°54' W 001°25'0 0.0
2018-Oct-19 13:30N 50°54' W 001°25'0 0.0
2018-Oct-19 13:03N 50°54' W 001°25'0 0.0
2018-Oct-19 13:00N 50°54' W 001°25'0 0.0
2018-Oct-19 12:30N 50°54' W 001°25'0 0.0
2018-Oct-19 12:03N 50°54' W 001°25'0 0.0
2018-Oct-19 12:00N 50°54' W 001°25'0 0.0
2018-Oct-19 11:30N 50°54' W 001°25'0 0.0
2018-Oct-19 11:03N 50°54' W 001°25'0 0.0
2018-Oct-19 11:00N 50°54' W 001°25'0 0.0
2018-Oct-19 10:30N 50°54' W 001°25'0 0.0
2018-Oct-19 10:03N 50°54' W 001°25'0 0.0
2018-Oct-19 10:00N 50°54' W 001°25'0 0.0
2018-Oct-19 09:30N 50°54' W 001°25'0 0.0
2018-Oct-19 09:03N 50°54' W 001°25'0 0.0
2018-Oct-19 09:00N 50°54' W 001°25'0 0.0
2018-Oct-19 08:30N 50°54' W 001°25'0 0.0
2018-Oct-19 08:03N 50°54' W 001°25'0 0.0
2018-Oct-19 08:00N 50°54' W 001°25'0 0.0
2018-Oct-19 07:30N 50°54' W 001°25'0 0.0
2018-Oct-19 07:03N 50°54' W 001°25'0 0.0
2018-Oct-19 07:00N 50°54' W 001°25'0 0.0
2018-Oct-19 06:30N 50°54' W 001°25'0 0.0
2018-Oct-19 06:03N 50°54' W 001°25'0 0.0
2018-Oct-19 06:00N 50°54' W 001°25'0 0.0
2018-Oct-19 05:30N 50°54' W 001°25'0 0.0
2018-Oct-19 05:03N 50°54' W 001°25'0 0.0
2018-Oct-19 05:00N 50°54' W 001°25'0 0.0
2018-Oct-19 04:30N 50°54' W 001°25'0 0.1
2018-Oct-19 04:04N 50°54' W 001°25'0 0.4
2018-Oct-19 04:00N 50°54' W 001°25'2 4.8
2018-Oct-19 03:30N 50°52' W 001°22'4 9.0
2018-Oct-19 03:03N 50°49' W 001°18'110.8
2018-Oct-19 03:00N 50°49' W 001°17'4 7.5
2018-Oct-19 02:30N 50°46' W 001°14'715.0
2018-Oct-19 02:03N 50°44' W 001°04'116.0
2018-Oct-19 02:00N 50°44' W 001°02'713.1
2018-Oct-19 01:30N 50°39' W 000°54'4 9.0
2018-Oct-19 01:03N 50°38' W 000°48'0 9.5
2018-Oct-19 01:00N 50°38' W 000°47'5 9.2
2018-Oct-19 00:30N 50°37' W 000°41'4 9.0
2018-Oct-19 00:03N 50°35' W 000°35'0 8.4
2018-Oct-19 00:00N 50°35' W 000°34'4 8.3
2018-Oct-18 23:30N 50°33' W 000°28'4 8.4
2018-Oct-18 23:01N 50°31' W 000°22'0 8.5
2018-Oct-18 23:00N 50°31' W 000°22'8 8.4
2018-Oct-18 22:00N 50°30' W 000°09'4 8.4
2018-Oct-18 21:30N 50°31' W 000°03'3 7.2
2018-Oct-18 21:03N 50°32' E 000°02'0 7.4
2018-Oct-18 21:00N 50°32' E 000°03'4 7.8
2018-Oct-18 20:29N 50°33' E 000°09'5 7.5
2018-Oct-18 19:52N 50°34' E 000°16'3 7.3
2018-Oct-18 19:30N 50°35' E 000°20'3 7.2
2018-Oct-18 19:03N 50°36' E 000°25'0 7.2
2018-Oct-18 19:00N 50°36' E 000°26'4 7.1
2018-Oct-18 18:30N 50°37' E 000°31'3 6.8
2018-Oct-18 18:03N 50°38' E 000°36'0 7.0
2018-Oct-18 18:00N 50°38' E 000°36'3 6.9
2018-Oct-18 17:30N 50°40' E 000°41'3 6.9
2018-Oct-18 17:03N 50°42' E 000°45'0 7.0
2018-Oct-18 17:00N 50°42' E 000°45'4 7.0
2018-Oct-18 16:30N 50°43' E 000°50'3 7.0
2018-Oct-18 16:03N 50°45' E 000°55'0 7.0
2018-Oct-18 16:00N 50°45' E 000°55'4 7.1
2018-Oct-18 15:30N 50°47' E 000°59'3 7.2
2018-Oct-18 15:03N 50°49' E 001°04'0 7.3
2018-Oct-18 15:00N 50°50' E 001°04'7 7.6
2018-Oct-18 14:03N 50°55' E 001°12'4 7.8
2018-Oct-18 13:30N 50°58' E 001°16'4 8.2
2018-Oct-18 13:03N 51°01' E 001°20'0 8.4
2018-Oct-18 13:00N 51°01' E 001°21'4 8.3
2018-Oct-18 12:30N 51°04' E 001°26'4 8.5
2018-Oct-18 12:03N 51°06' E 001°31'0 8.7
2018-Oct-18 12:00N 51°06' E 001°31'4 8.6
2018-Oct-18 11:30N 51°09' E 001°37'4 8.2
2018-Oct-18 11:03N 51°11' E 001°42'0 8.2
2018-Oct-18 11:00N 51°11' E 001°42'4 7.9
2018-Oct-18 10:30N 51°14' E 001°46'3 7.7
2018-Oct-18 10:03N 51°17' E 001°49'0 7.6
2018-Oct-18 10:00N 51°17' E 001°49'4 7.8
2018-Oct-18 09:30N 51°21' E 001°52'4 8.1
2018-Oct-18 09:03N 51°24' E 001°55'0 8.1
2018-Oct-18 09:00N 51°25' E 001°55'4 7.8
2018-Oct-18 08:30N 51°28' E 001°58'4 7.9
2018-Oct-18 08:03N 51°31' E 002°01'0 8.0
2018-Oct-18 08:00N 51°31' E 002°02'4 8.0
2018-Oct-18 07:30N 51°34' E 002°06'4 7.9
2018-Oct-18 07:03N 51°37' E 002°10'0 7.7
2018-Oct-18 07:00N 51°37' E 002°10'4 8.0
2018-Oct-18 06:30N 51°40' E 002°15'4 7.8
2018-Oct-18 06:02N 51°42' E 002°19'0 7.4
2018-Oct-18 06:00N 51°43' E 002°19'4 7.8
2018-Oct-18 05:30N 51°46' E 002°23'4 7.7
2018-Oct-18 05:03N 51°48' E 002°27'0 7.7
2018-Oct-18 04:59N 51°49' E 002°27'4 7.8
2018-Oct-18 04:29N 51°52' E 002°31'4 8.0
2018-Oct-18 04:03N 51°54' E 002°35'0 7.9
2018-Oct-18 03:59N 51°55' E 002°36'6 7.9
2018-Oct-18 03:12N 51°59' E 002°42'13 8.8
2018-Oct-18 01:45N 52°09' E 002°56'3 9.4
2018-Oct-18 01:27N 52°11' E 002°59'4 9.2
2018-Oct-18 01:02N 52°14' E 003°03'1 9.1
2018-Oct-18 00:54N 52°15' E 003°04'4 9.0
2018-Oct-18 00:30N 52°17' E 003°08'4 8.7
2018-Oct-18 00:02N 52°20' E 003°13'0 8.5
2018-Oct-18 00:00N 52°21' E 003°13'4 8.5
2018-Oct-17 23:30N 52°24' E 003°18'4 8.4
2018-Oct-17 23:02N 52°26' E 003°23'0 8.1
2018-Oct-17 23:00N 52°26' E 003°23'4 8.3
2018-Oct-17 22:30N 52°27' E 003°30'4 8.2
2018-Oct-17 22:03N 52°29' E 003°36'0 8.1
2018-Oct-17 22:00N 52°29' E 003°36'4 8.0
2018-Oct-17 21:30N 52°30' E 003°42'4 7.9
2018-Oct-17 21:03N 52°30' E 003°48'0 7.9
2018-Oct-17 21:00N 52°30' E 003°49'4 7.8
2018-Oct-17 20:30N 52°30' E 003°55'4 7.8
2018-Oct-17 20:03N 52°30' E 004°01'0 7.8
2018-Oct-17 20:00N 52°30' E 004°02'4 8.1
2018-Oct-17 19:30N 52°30' E 004°08'4 8.3
2018-Oct-17 19:03N 52°29' E 004°14'110.6
2018-Oct-17 19:00N 52°29' E 004°15'611.0
2018-Oct-17 18:30N 52°29' E 004°24'4 9.0
2018-Oct-17 18:03N 52°28' E 004°31'112.0
2018-Oct-17 18:00N 52°28' E 004°32'3 5.9
2018-Oct-17 17:30N 52°28' E 004°36'0 0.0
2018-Oct-17 17:03N 52°28' E 004°36'0 0.4
2018-Oct-17 17:00N 52°28' E 004°37'1 1.1
2018-Oct-17 16:30N 52°28' E 004°37'3 6.3
2018-Oct-17 16:03N 52°27' E 004°42'0 7.7
2018-Oct-17 16:00N 52°26' E 004°42'4 7.4
2018-Oct-17 15:30N 52°25' E 004°48'3 6.8
2018-Oct-17 15:03N 52°24' E 004°53'0 6.5
2018-Oct-17 15:00N 52°24' E 004°53'2 1.9
2018-Oct-17 14:01N 52°23' E 004°55'0 0.0
2018-Oct-17 13:28N 52°23' E 004°55'0 0.0
2018-Oct-17 13:01N 52°23' E 004°55'0 0.0
2018-Oct-17 12:58N 52°23' E 004°55'0 0.0
2018-Oct-17 12:28N 52°23' E 004°55'0 0.0
2018-Oct-17 12:01N 52°23' E 004°55'0 0.0
2018-Oct-17 11:58N 52°23' E 004°55'0 0.0
2018-Oct-17 11:28N 52°23' E 004°55'0 0.0
2018-Oct-17 11:01N 52°23' E 004°55'0 0.0
2018-Oct-17 10:58N 52°23' E 004°55'0 0.0
2018-Oct-17 10:28N 52°23' E 004°55'0 0.0
2018-Oct-17 10:01N 52°23' E 004°55'0 0.0
2018-Oct-17 09:58N 52°23' E 004°55'0 0.0
2018-Oct-17 09:28N 52°23' E 004°55'0 0.0
2018-Oct-17 09:01N 52°23' E 004°55'0 0.0
2018-Oct-17 08:58N 52°23' E 004°55'0 0.0
2018-Oct-17 08:28N 52°23' E 004°55'0 0.0
2018-Oct-17 08:01N 52°23' E 004°55'0 0.0
2018-Oct-17 07:58N 52°23' E 004°55'0 0.0
2018-Oct-17 07:28N 52°23' E 004°55'0 0.0
2018-Oct-17 07:01N 52°23' E 004°55'0 0.0
2018-Oct-17 06:58N 52°23' E 004°55'0 0.0
2018-Oct-17 06:28N 52°23' E 004°55'0 0.0
2018-Oct-17 06:01N 52°23' E 004°55'0 0.0
2018-Oct-17 05:58N 52°23' E 004°55'0 0.0
2018-Oct-17 05:28N 52°23' E 004°55'0 0.0
2018-Oct-17 04:58N 52°23' E 004°55'0 0.2
2018-Oct-17 04:30N 52°23' E 004°55'0 1.0
2018-Oct-17 04:03N 52°23' E 004°56'0 2.0
2018-Oct-17 04:00N 52°23' E 004°55'2 4.0
2018-Oct-17 03:30N 52°24' E 004°53'3 6.7
2018-Oct-17 03:03N 52°25' E 004°48'0 7.5
2018-Oct-17 03:00N 52°25' E 004°48'4 7.5
2018-Oct-17 02:30N 52°27' E 004°42'3 6.8
2018-Oct-17 02:03N 52°28' E 004°37'0 3.6
2018-Oct-17 02:00N 52°28' E 004°37'0 0.6
2018-Oct-17 01:30N 52°28' E 004°37'0 0.6
2018-Oct-17 01:03N 52°28' E 004°36'0 1.8
2018-Oct-17 01:00N 52°28' E 004°36'3 5.3
2018-Oct-17 00:30N 52°28' E 004°32'510.2
2018-Oct-17 00:03N 52°29' E 004°24'110.9
2018-Oct-17 00:00N 52°29' E 004°23'5 9.2
2018-Oct-16 23:30N 52°30' E 004°16'4 9.5
2018-Oct-16 23:03N 52°30' E 004°09'110.2
2018-Oct-16 23:00N 52°30' E 004°08'5 9.7
2018-Oct-16 22:30N 52°30' E 004°00'4 9.3
2018-Oct-16 22:03N 52°30' E 003°53'0 9.2
2018-Oct-16 22:00N 52°30' E 003°53'5 9.1
2018-Oct-16 21:30N 52°29' E 003°45'4 9.2
2018-Oct-16 21:03N 52°27' E 003°39'0 9.2
2018-Oct-16 21:00N 52°27' E 003°39'5 9.3
2018-Oct-16 20:30N 52°25' E 003°32'4 9.0
2018-Oct-16 20:03N 52°22' E 003°27'0 9.1
2018-Oct-16 20:00N 52°22' E 003°26'5 9.1
2018-Oct-16 19:30N 52°18' E 003°22'4 8.6
2018-Oct-16 19:03N 52°15' E 003°18'0 8.4
2018-Oct-16 19:00N 52°15' E 003°17'4 8.4
2018-Oct-16 18:30N 52°12' E 003°13'4 8.4
2018-Oct-16 18:03N 52°09' E 003°09'0 8.5
2018-Oct-16 18:00N 52°08' E 003°09'5 8.8
2018-Oct-16 17:28N 52°04' E 003°05'3 8.4
2018-Oct-16 17:03N 52°02' E 003°01'0 8.6
2018-Oct-16 17:00N 52°02' E 003°00'4 8.5
2018-Oct-16 16:30N 51°59' E 002°55'4 9.2
2018-Oct-16 16:03N 51°56' E 002°50'010.0
2018-Oct-16 16:00N 51°56' E 002°49'5 9.7
2018-Oct-16 15:30N 51°52' E 002°44'4 9.4
2018-Oct-16 15:03N 51°49' E 002°40'0 9.3
2018-Oct-16 15:00N 51°49' E 002°39'5 9.1
2018-Oct-16 14:30N 51°45' E 002°34'5 9.1
2018-Oct-16 14:00N 51°42' E 002°29'5 9.2
2018-Oct-16 13:30N 51°38' E 002°24'4 9.1
2018-Oct-16 13:03N 51°35' E 002°20'0 9.1
2018-Oct-16 13:00N 51°35' E 002°20'4 9.0
2018-Oct-16 12:30N 51°32' E 002°15'4 9.0
2018-Oct-16 12:03N 51°28' E 002°11'0 9.1
2018-Oct-16 12:00N 51°28' E 002°10'5 9.2
2018-Oct-16 11:30N 51°24' E 002°06'4 9.2
2018-Oct-16 11:03N 51°22' E 002°01'0 9.3
2018-Oct-16 11:00N 51°21' E 002°00'5 9.3
2018-Oct-16 10:30N 51°18' E 001°56'4 9.3
2018-Oct-16 10:03N 51°15' E 001°51'0 9.1
2018-Oct-16 10:00N 51°14' E 001°51'4 8.3
2018-Oct-16 09:30N 51°11' E 001°46'4 8.2
2018-Oct-16 09:03N 51°08' E 001°43'0 8.3
2018-Oct-16 09:00N 51°08' E 001°42'4 8.3
2018-Oct-16 08:30N 51°05' E 001°38'4 8.3
2018-Oct-16 08:03N 51°01' E 001°35'0 7.4
2018-Oct-16 08:00N 51°01' E 001°35'4 8.1
2018-Oct-16 07:30N 50°58' E 001°30'4 8.4
2018-Oct-16 07:03N 50°55' E 001°27'0 8.5
2018-Oct-16 07:00N 50°55' E 001°26'4 8.6
2018-Oct-16 06:30N 50°51' E 001°24'4 8.7
2018-Oct-16 06:03N 50°47' E 001°22'0 8.7
2018-Oct-16 06:00N 50°47' E 001°22'4 8.5
2018-Oct-16 05:30N 50°43' E 001°19'4 8.6
2018-Oct-16 05:03N 50°40' E 001°15'0 8.7
2018-Oct-16 05:00N 50°40' E 001°14'4 8.8
2018-Oct-16 04:30N 50°37' E 001°09'4 8.8
2018-Oct-16 04:03N 50°35' E 001°04'0 8.7
2018-Oct-16 04:00N 50°34' E 001°03'4 8.7
2018-Oct-16 03:30N 50°32' E 000°58'4 8.8
2018-Oct-16 03:03N 50°31' E 000°52'0 8.9
2018-Oct-16 03:00N 50°31' E 000°51'4 8.8
2018-Oct-16 02:30N 50°30' E 000°45'4 8.7
2018-Oct-16 02:03N 50°28' E 000°39'0 8.8
2018-Oct-16 02:00N 50°28' E 000°38'4 8.8
2018-Oct-16 01:30N 50°27' E 000°31'4 8.8
2018-Oct-16 01:03N 50°26' E 000°26'0 8.9
2018-Oct-16 01:00N 50°25' E 000°25'4 8.8
2018-Oct-16 00:30N 50°24' E 000°18'4 8.8
2018-Oct-16 00:03N 50°23' E 000°12'0 8.7
2018-Oct-16 00:00N 50°23' E 000°12'4 8.5
2018-Oct-15 23:31N 50°22' E 000°05'4 8.5
2018-Oct-15 23:04N 50°21' W 000°01'1 8.4
2018-Oct-15 22:59N 50°21' W 000°02'4 8.5
2018-Oct-15 22:30N 50°21' W 000°08'4 8.6
2018-Oct-15 22:03N 50°23' W 000°14'0 8.6
2018-Oct-15 22:00N 50°23' W 000°14'4 8.6
2018-Oct-15 21:31N 50°25' W 000°20'4 9.0
2018-Oct-15 21:03N 50°26' W 000°26'0 9.1
2018-Oct-15 21:00N 50°26' W 000°27'5 9.1
2018-Oct-15 20:30N 50°28' W 000°34'4 9.2
2018-Oct-15 20:03N 50°29' W 000°40'0 9.2
2018-Oct-15 20:00N 50°29' W 000°41'5 9.3
2018-Oct-15 19:30N 50°31' W 000°47'4 9.4
2018-Oct-15 19:03N 50°33' W 000°53'1 9.5
2018-Oct-15 19:00N 50°33' W 000°54'4 8.9
2018-Oct-15 18:31N 50°36' W 000°59'510.0
2018-Oct-15 18:03N 50°41' W 000°58'113.1
2018-Oct-15 18:00N 50°41' W 000°58'511.0
2018-Oct-15 17:31N 50°44' W 001°05'714.8
2018-Oct-15 17:03N 50°46' W 001°15'114.1
2018-Oct-15 17:00N 50°46' W 001°16'4 8.8
2018-Oct-15 16:30N 50°50' W 001°19'4 9.5
2018-Oct-15 16:03N 50°53' W 001°24'0 6.3
2018-Oct-15 16:00N 50°53' W 001°24'1 1.0
2018-Oct-15 15:29N 50°54' W 001°25'0 0.0
2018-Oct-15 15:02N 50°54' W 001°25'0 0.0
2018-Oct-15 14:59N 50°54' W 001°25'0 0.0
2018-Oct-15 14:29N 50°54' W 001°25'0 0.0
2018-Oct-15 13:59N 50°54' W 001°25'0 0.0
2018-Oct-15 13:29N 50°54' W 001°25'0 0.0
2018-Oct-15 13:02N 50°54' W 001°25'0 0.0
2018-Oct-15 12:59N 50°54' W 001°25'0 0.0
2018-Oct-15 12:29N 50°54' W 001°25'0 0.0
2018-Oct-15 12:02N 50°54' W 001°25'0 0.0
2018-Oct-15 11:59N 50°54' W 001°25'0 0.0
2018-Oct-15 11:29N 50°54' W 001°25'0 0.0
2018-Oct-15 11:02N 50°54' W 001°25'0 0.0
2018-Oct-15 10:59N 50°54' W 001°25'0 0.0
2018-Oct-15 10:29N 50°54' W 001°25'0 0.0
2018-Oct-15 10:02N 50°54' W 001°25'0 0.0
2018-Oct-15 09:59N 50°54' W 001°25'0 0.0
2018-Oct-15 09:29N 50°54' W 001°25'0 0.0
2018-Oct-15 09:02N 50°54' W 001°25'0 0.0
2018-Oct-15 08:59N 50°54' W 001°25'0 0.0
2018-Oct-15 08:29N 50°54' W 001°25'0 0.0
2018-Oct-15 08:02N 50°54' W 001°25'0 0.0
2018-Oct-15 07:59N 50°54' W 001°25'0 0.0
2018-Oct-15 07:29N 50°54' W 001°25'0 0.0
2018-Oct-15 07:02N 50°54' W 001°25'0 0.0
2018-Oct-15 06:59N 50°54' W 001°25'0 0.0
2018-Oct-15 06:29N 50°54' W 001°25'0 0.0
2018-Oct-15 06:02N 50°54' W 001°25'0 0.0
2018-Oct-15 05:59N 50°54' W 001°25'0 0.0
2018-Oct-15 05:29N 50°54' W 001°25'0 0.0
2018-Oct-15 05:02N 50°54' W 001°25'0 0.0
2018-Oct-15 04:59N 50°54' W 001°25'0 0.0
2018-Oct-15 04:29N 50°54' W 001°25'0 0.1
2018-Oct-15 04:03N 50°54' W 001°25'0 0.6
2018-Oct-15 04:00N 50°54' W 001°25'2 4.9
2018-Oct-15 03:30N 50°52' W 001°22'4 9.4
2018-Oct-15 03:03N 50°49' W 001°18'112.3
2018-Oct-15 03:00N 50°48' W 001°17'4 8.1
2018-Oct-15 02:30N 50°46' W 001°13'817.4
2018-Oct-15 02:03N 50°43' W 001°01'117.4
2018-Oct-15 02:00N 50°43' W 000°60'510.8
2018-Oct-15 01:30N 50°38' W 000°56'715.6
2018-Oct-15 01:03N 50°31' W 000°59'116.9
2018-Oct-15 01:00N 50°30' W 000°59'815.6
2018-Oct-15 00:30N 50°23' W 001°02'614.1
2018-Oct-15 00:03N 50°17' W 001°08'114.1
2018-Oct-15 00:01N 50°17' W 001°09'713.7
2018-Oct-14 23:30N 50°13' W 001°18'613.4
2018-Oct-14 23:03N 50°09' W 001°24'113.2
2018-Oct-14 23:00N 50°08' W 001°24'713.5
2018-Oct-14 22:30N 50°04' W 001°33'613.9
2018-Oct-14 22:04N 50°02' W 001°42'112.3
2018-Oct-14 22:00N 50°01' W 001°43'612.4
2018-Oct-14 21:30N 49°60' W 001°52'613.8
2018-Oct-14 21:03N 49°59' W 002°01'113.3
2018-Oct-14 21:00N 49°58' W 002°02'713.2
2018-Oct-14 20:30N 49°57' W 002°12'1112.4
2018-Oct-14 19:37N 49°53' W 002°28'212.1
2018-Oct-14 19:25N 49°52' W 002°32'512.0
2018-Oct-14 19:01N 49°51' W 002°39'512.0
2018-Oct-14 18:37N 49°50' W 002°46'211.8
2018-Oct-14 18:25N 49°49' W 002°50'711.6
2018-Oct-14 17:50N 49°48' W 003°00'811.3
2018-Oct-14 17:09N 49°46' W 003°12'411.2
2018-Oct-14 16:49N 49°45' W 003°17'511.3
2018-Oct-14 16:25N 49°44' W 003°24'411.2
2018-Oct-14 16:01N 49°43' W 003°31'211.3
2018-Oct-14 15:50N 49°42' W 003°34'12 6.6
2018-Oct-14 14:00N 49°54' W 003°28'1213.3
2018-Oct-14 13:05N 49°57' W 003°10'613.2
2018-Oct-14 12:36N 49°59' W 003°00'312.7
2018-Oct-14 12:24N 49°60' W 002°56'512.4
2018-Oct-14 12:00N 50°01' W 002°49'711.8
2018-Oct-14 11:24N 50°02' W 002°38'511.3
2018-Oct-14 10:56N 50°03' W 002°30'510.9
2018-Oct-14 10:30N 50°05' W 002°23'510.8
2018-Oct-14 10:03N 50°06' W 002°16'110.9
2018-Oct-14 10:00N 50°06' W 002°15'510.5
2018-Oct-14 09:30N 50°08' W 002°07'510.7
2018-Oct-14 09:03N 50°09' W 002°00'111.2
2018-Oct-14 09:00N 50°09' W 001°59'510.9
2018-Oct-14 08:31N 50°11' W 001°51'511.0
2018-Oct-14 08:03N 50°12' W 001°44'611.2
2018-Oct-14 07:30N 50°14' W 001°34'511.2
2018-Oct-14 07:03N 50°15' W 001°27'111.7
2018-Oct-14 07:00N 50°15' W 001°26'611.7
2018-Oct-14 06:30N 50°17' W 001°17'511.9
2018-Oct-14 06:03N 50°18' W 001°09'112.1
2018-Oct-14 06:00N 50°18' W 001°08'612.5
2018-Oct-14 05:30N 50°20' W 000°58'612.6
2018-Oct-14 05:03N 50°21' W 000°50'112.2
2018-Oct-14 05:00N 50°22' W 000°49'612.5
2018-Oct-14 04:30N 50°24' W 000°40'612.6
2018-Oct-14 04:03N 50°25' W 000°31'212.4
2018-Oct-14 03:55N 50°26' W 000°29'512.4
2018-Oct-14 03:30N 50°27' W 000°21'813.1
2018-Oct-14 02:55N 50°29' W 000°09'713.7
2018-Oct-14 02:26N 50°31' E 000°01'513.3
2018-Oct-14 02:03N 50°32' E 000°08'312.8
2018-Oct-14 01:51N 50°33' E 000°12'412.5
2018-Oct-14 01:31N 50°34' E 000°19'612.4
2018-Oct-14 01:04N 50°35' E 000°27'112.3
2018-Oct-14 01:01N 50°36' E 000°28'612.0
2018-Oct-14 00:31N 50°38' E 000°37'511.1
2018-Oct-14 00:04N 50°41' E 000°44'111.2
2018-Oct-14 00:01N 50°41' E 000°44'611.2
2018-Oct-13 23:30N 50°44' E 000°52'511.2
2018-Oct-13 23:04N 50°47' E 000°58'111.5
2018-Oct-13 23:00N 50°47' E 000°59'611.5
2018-Oct-13 22:31N 50°51' E 001°06'612.3
2018-Oct-13 22:03N 50°55' E 001°12'112.4
2018-Oct-13 22:01N 50°56' E 001°12'612.9
2018-Oct-13 21:31N 51°00' E 001°20'613.2
2018-Oct-13 21:04N 51°04' E 001°27'113.4
2018-Oct-13 21:01N 51°05' E 001°27'713.4
2018-Oct-13 20:31N 51°09' E 001°36'613.9
2018-Oct-13 20:04N 51°13' E 001°43'113.3
2018-Oct-13 20:01N 51°13' E 001°44'612.9
2018-Oct-13 19:31N 51°19' E 001°49'512.0
2018-Oct-13 19:04N 51°23' E 001°54'111.2
2018-Oct-13 19:01N 51°24' E 001°54'611.4
2018-Oct-13 18:31N 51°25' E 002°03'511.9
2018-Oct-13 18:04N 51°22' E 002°11'112.6
2018-Oct-13 18:01N 51°22' E 002°12'612.0
2018-Oct-13 17:31N 51°21' E 002°21'612.2
2018-Oct-13 17:04N 51°23' E 002°30'111.6
2018-Oct-13 17:01N 51°23' E 002°30'611.7
2018-Oct-13 16:30N 51°23' E 002°40'511.2
2018-Oct-13 16:04N 51°25' E 002°47'113.3
2018-Oct-13 16:01N 51°25' E 002°48'815.4
2018-Oct-13 15:31N 51°25' E 003°00'714.8
2018-Oct-13 15:03N 51°23' E 003°10'114.1
2018-Oct-13 15:01N 51°22' E 003°11'2 1.9
2018-Oct-13 14:03N 51°20' E 003°12'0 0.0
2018-Oct-13 14:00N 51°20' E 003°12'0 0.0
2018-Oct-13 13:30N 51°20' E 003°12'0 0.0
2018-Oct-13 13:03N 51°20' E 003°12'0 0.0
2018-Oct-13 13:00N 51°20' E 003°12'0 0.0
2018-Oct-13 12:30N 51°20' E 003°12'0 0.0
2018-Oct-13 12:03N 51°20' E 003°12'0 0.0
2018-Oct-13 12:00N 51°20' E 003°12'0 0.0
2018-Oct-13 11:30N 51°20' E 003°12'0 0.0
2018-Oct-13 11:03N 51°20' E 003°12'0 0.0
2018-Oct-13 11:00N 51°20' E 003°12'0 0.0
2018-Oct-13 10:30N 51°20' E 003°12'0 0.0
2018-Oct-13 10:03N 51°20' E 003°12'0 0.0
2018-Oct-13 10:00N 51°20' E 003°12'0 0.0
2018-Oct-13 09:30N 51°20' E 003°12'0 0.0
2018-Oct-13 09:03N 51°20' E 003°12'0 0.0
2018-Oct-13 09:00N 51°20' E 003°12'0 0.0
2018-Oct-13 08:30N 51°20' E 003°12'0 0.0
2018-Oct-13 08:03N 51°20' E 003°12'0 0.0
2018-Oct-13 08:00N 51°20' E 003°12'0 0.0
2018-Oct-13 07:30N 51°20' E 003°12'0 0.0
2018-Oct-13 07:03N 51°20' E 003°12'0 0.0
2018-Oct-13 07:00N 51°20' E 003°12'0 0.0
2018-Oct-13 06:30N 51°20' E 003°12'0 0.0
2018-Oct-13 06:03N 51°20' E 003°12'0 0.0
2018-Oct-13 06:00N 51°20' E 003°12'0 0.0
2018-Oct-13 05:30N 51°20' E 003°12'0 0.0
2018-Oct-13 05:03N 51°20' E 003°12'0 0.0
2018-Oct-13 05:00N 51°20' E 003°12'0 0.3
2018-Oct-13 04:30N 51°21' E 003°12'4 8.5
2018-Oct-13 04:03N 51°24' E 003°09'113.6
2018-Oct-13 04:00N 51°24' E 003°08'815.5
2018-Oct-13 03:31N 51°22' E 002°56'716.3
2018-Oct-13 03:03N 51°22' E 002°44'110.2
2018-Oct-13 03:00N 51°22' E 002°43'917.5
2018-Oct-13 02:31N 51°22' E 002°29'919.6
2018-Oct-13 02:03N 51°18' E 002°16'119.7
2018-Oct-13 02:01N 51°18' E 002°15'1019.6
2018-Oct-13 01:31N 51°13' E 002°01'920.1
2018-Oct-13 01:03N 51°07' E 001°50'120.2
2018-Oct-13 01:00N 51°07' E 001°48'1020.6
2018-Oct-13 00:30N 50°60' E 001°37'920.4
2018-Oct-13 00:04N 50°52' E 001°28'120.0
2018-Oct-13 00:01N 50°51' E 001°28'1019.3
2018-Oct-12 23:31N 50°42' E 001°23'818.7
2018-Oct-12 23:03N 50°36' E 001°14'118.8
2018-Oct-12 23:01N 50°35' E 001°13'918.7
2018-Oct-12 22:31N 50°29' E 001°01'919.4
2018-Oct-12 22:03N 50°27' E 000°48'119.7
2018-Oct-12 22:01N 50°27' E 000°47'1019.7
2018-Oct-12 21:30N 50°24' E 000°32'919.4
2018-Oct-12 21:03N 50°22' E 000°19'119.4
2018-Oct-12 21:00N 50°21' E 000°17'919.1
2018-Oct-12 20:30N 50°19' E 000°03'818.6
2018-Oct-12 20:04N 50°19' W 000°10'118.1
2018-Oct-12 20:01N 50°19' W 000°12'917.6
2018-Oct-12 19:31N 50°23' W 000°24'817.3
2018-Oct-12 19:03N 50°26' W 000°35'117.3
2018-Oct-12 19:00N 50°26' W 000°36'817.0
2018-Oct-12 18:31N 50°31' W 000°47'816.7
2018-Oct-12 18:03N 50°36' W 000°57'114.4
2018-Oct-12 18:01N 50°36' W 000°57'612.6
2018-Oct-12 17:30N 50°43' W 000°59'613.8
2018-Oct-12 17:03N 50°45' W 001°07'118.1
2018-Oct-12 17:00N 50°46' W 001°09'612.3
2018-Oct-12 16:30N 50°48' W 001°18'510.3
2018-Oct-12 16:03N 50°52' W 001°22'112.4
2018-Oct-12 16:00N 50°52' W 001°23'2 4.2
2018-Oct-12 15:30N 50°54' W 001°25'0 0.0
2018-Oct-12 15:03N 50°54' W 001°25'0 0.0
2018-Oct-12 15:00N 50°54' W 001°25'0 0.0
2018-Oct-12 14:03N 50°54' W 001°25'0 0.0
2018-Oct-12 14:00N 50°54' W 001°25'0 0.0
2018-Oct-12 13:30N 50°54' W 001°25'0 0.0
2018-Oct-12 13:03N 50°54' W 001°25'0 0.0
2018-Oct-12 13:00N 50°54' W 001°25'0 0.0
2018-Oct-12 12:30N 50°54' W 001°25'0 0.0
2018-Oct-12 12:03N 50°54' W 001°25'0 0.0
2018-Oct-12 11:57N 50°54' W 001°25'0 0.0
2018-Oct-12 11:30N 50°54' W 001°25'0 0.0
2018-Oct-12 11:03N 50°54' W 001°25'0 0.0
2018-Oct-12 11:00N 50°54' W 001°25'0 0.0
2018-Oct-12 10:30N 50°54' W 001°25'0 0.0
2018-Oct-12 10:03N 50°54' W 001°25'0 0.0
2018-Oct-12 10:00N 50°54' W 001°25'0 0.0
2018-Oct-12 09:30N 50°54' W 001°25'0 0.0
2018-Oct-12 09:03N 50°54' W 001°25'0 0.0
2018-Oct-12 09:00N 50°54' W 001°25'0 0.0
2018-Oct-12 08:30N 50°54' W 001°25'0 0.0
2018-Oct-12 08:00N 50°54' W 001°25'0 0.0
2018-Oct-12 07:27N 50°54' W 001°25'0 0.0
2018-Oct-12 07:03N 50°54' W 001°25'0 0.0
2018-Oct-12 07:00N 50°54' W 001°25'0 0.0
2018-Oct-12 06:27N 50°54' W 001°25'0 0.0
2018-Oct-12 06:03N 50°54' W 001°25'0 0.0
2018-Oct-12 06:00N 50°54' W 001°25'0 0.0
2018-Oct-12 05:30N 50°54' W 001°25'0 0.0
2018-Oct-12 05:03N 50°54' W 001°25'0 0.0
2018-Oct-12 05:00N 50°54' W 001°25'0 0.0
2018-Oct-12 04:30N 50°54' W 001°25'0 0.0
2018-Oct-12 04:03N 50°54' W 001°25'0 0.2
2018-Oct-12 04:00N 50°54' W 001°25'1 2.7
2018-Oct-12 03:30N 50°53' W 001°24'510.1
2018-Oct-12 03:03N 50°50' W 001°19'111.7
2018-Oct-12 03:00N 50°49' W 001°18'4 7.7
2018-Oct-12 02:30N 50°46' W 001°14'715.7
2018-Oct-12 02:03N 50°44' W 001°04'118.8
2018-Oct-12 02:00N 50°44' W 001°02'510.3
2018-Oct-12 01:30N 50°39' W 000°59'612.6
2018-Oct-12 01:03N 50°34' W 001°02'114.3
2018-Oct-12 01:00N 50°33' W 001°03'714.9
2018-Oct-12 00:30N 50°29' W 001°13'715.2
2018-Oct-12 00:03N 50°26' W 001°22'115.1
2018-Oct-12 00:00N 50°26' W 001°23'815.1
2018-Oct-11 23:30N 50°22' W 001°33'715.9
2018-Oct-11 23:03N 50°17' W 001°41'116.7
2018-Oct-11 23:01N 50°16' W 001°42'917.2
2018-Oct-11 22:30N 50°10' W 001°51'817.8
2018-Oct-11 22:03N 50°04' W 002°00'117.7
2018-Oct-11 22:00N 50°04' W 002°01'917.9
2018-Oct-11 21:30N 49°59' W 002°13'2517.8
2018-Oct-11 20:05N 49°51' W 002°51'516.9
2018-Oct-11 19:47N 49°50' W 002°58'516.9
2018-Oct-11 19:30N 49°47' W 003°05'1419.2
2018-Oct-11 18:47N 49°42' W 003°24'1019.3
2018-Oct-11 18:16N 49°37' W 003°38'1719.2
2018-Oct-11 17:24N 49°27' W 003°58'5018.8
2018-Oct-11 14:44N 48°59' W 005°03'618.1
2018-Oct-11 14:25N 48°56' W 005°10'718.0
2018-Oct-11 14:00N 48°52' W 005°19'917.4
2018-Oct-11 13:30N 48°48' W 005°30'4316.8
2018-Oct-11 10:58N 48°10' W 006°00'  

Dump ship's entire track history